createdAt,value
2019-01-30T00:00:17.836Z,100.00
2019-01-30T00:02:46.342Z,100.00
2019-01-30T00:05:14.888Z,100.00
2019-01-30T00:07:43.322Z,100.00
2019-01-30T00:10:11.997Z,100.00
2019-01-30T00:12:40.502Z,100.00
2019-01-30T00:15:10.392Z,100.00
2019-01-30T00:17:38.822Z,100.00
2019-01-30T00:20:13.961Z,100.00
2019-01-30T00:22:42.459Z,100.00
2019-01-30T00:25:12.888Z,100.00
2019-01-30T00:27:41.310Z,100.00
2019-01-30T00:30:24.395Z,100.00
2019-01-30T00:32:52.834Z,100.00
2019-01-30T00:35:21.420Z,100.00
2019-01-30T00:37:49.859Z,100.00
2019-01-30T00:40:22.642Z,100.00
2019-01-30T00:42:51.240Z,100.00
2019-01-30T00:45:21.389Z,100.00
2019-01-30T00:47:49.892Z,100.00
2019-01-30T00:50:24.363Z,100.00
2019-01-30T00:52:53.040Z,100.00
2019-01-30T00:55:21.445Z,100.00
2019-01-30T00:57:49.972Z,100.00
2019-01-30T01:00:26.687Z,100.00
2019-01-30T01:02:55.212Z,100.00
2019-01-30T01:05:24.084Z,100.00
2019-01-30T01:07:52.712Z,100.00
2019-01-30T01:10:22.051Z,100.00
2019-01-30T01:12:50.595Z,100.00
2019-01-30T01:15:19.516Z,100.00
2019-01-30T01:17:48.116Z,100.00
2019-01-30T01:20:21.470Z,100.00
2019-01-30T01:22:50.102Z,100.00
2019-01-30T01:25:19.088Z,100.00
2019-01-30T01:27:47.628Z,100.00
2019-01-30T01:30:27.811Z,100.00
2019-01-30T01:32:56.389Z,100.00
2019-01-30T01:35:24.990Z,100.00
2019-01-30T01:37:53.490Z,100.00
2019-01-30T01:40:22.068Z,100.00
2019-01-30T01:42:50.488Z,100.00
2019-01-30T01:45:21.133Z,100.00
2019-01-30T01:47:49.580Z,100.00
2019-01-30T01:50:20.154Z,100.00
2019-01-30T01:52:48.636Z,100.00
2019-01-30T01:55:17.249Z,100.00
2019-01-30T01:57:45.737Z,100.00
2019-01-30T02:00:17.232Z,100.00
2019-01-30T02:02:45.672Z,100.00
2019-01-30T02:05:16.522Z,100.00
2019-01-30T02:07:44.952Z,100.00
2019-01-30T02:10:16.114Z,100.00
2019-01-30T02:12:44.593Z,100.00
2019-01-30T02:15:16.215Z,100.00
2019-01-30T02:17:44.726Z,100.00
2019-01-30T02:20:16.070Z,100.00
2019-01-30T02:22:44.619Z,100.00
2019-01-30T02:25:13.654Z,100.00
2019-01-30T02:27:42.065Z,100.00
2019-01-30T02:30:22.172Z,100.00
2019-01-30T02:32:50.733Z,100.00
2019-01-30T02:35:19.179Z,100.00
2019-01-30T02:37:47.657Z,100.00
2019-01-30T02:40:18.424Z,100.00
2019-01-30T02:42:46.851Z,100.00
2019-01-30T02:45:20.706Z,100.00
2019-01-30T02:47:49.205Z,100.00
2019-01-30T02:50:19.680Z,100.00
2019-01-30T02:52:48.931Z,100.00
2019-01-30T02:55:19.115Z,100.00
2019-01-30T02:57:47.566Z,100.00
2019-01-30T03:00:30.841Z,100.00
2019-01-30T03:02:59.351Z,100.00
2019-01-30T03:05:28.190Z,100.00
2019-01-30T03:07:56.696Z,100.00
2019-01-30T03:10:25.198Z,100.00
2019-01-30T03:12:53.771Z,100.00
2019-01-30T03:15:22.836Z,100.00
2019-01-30T03:17:51.400Z,100.00
2019-01-30T03:20:25.103Z,100.00
2019-01-30T03:22:54.405Z,100.00
2019-01-30T03:25:24.869Z,100.00
2019-01-30T03:27:53.370Z,100.00
2019-01-30T03:30:27.183Z,100.00
2019-01-30T03:32:55.617Z,100.00
2019-01-30T03:35:24.202Z,100.00
2019-01-30T03:37:52.649Z,100.00
2019-01-30T03:40:21.916Z,100.00
2019-01-30T03:42:50.814Z,100.00
2019-01-30T03:45:22.077Z,100.00
2019-01-30T03:47:50.595Z,100.00
2019-01-30T03:50:19.167Z,100.00
2019-01-30T03:52:47.591Z,100.00
2019-01-30T03:55:19.084Z,100.00
2019-01-30T03:57:47.627Z,100.00
2019-01-30T04:00:21.264Z,100.00
2019-01-30T04:02:50.232Z,100.00
2019-01-30T04:05:18.722Z,100.00
2019-01-30T04:07:47.213Z,100.00
2019-01-30T04:10:18.522Z,100.00
2019-01-30T04:12:46.934Z,100.00
2019-01-30T04:15:15.618Z,100.00
2019-01-30T04:17:44.069Z,100.00
2019-01-30T04:20:18.206Z,100.00
2019-01-30T04:22:46.898Z,100.00
2019-01-30T04:25:15.489Z,100.00
2019-01-30T04:27:43.963Z,100.00
2019-01-30T04:30:18.117Z,100.00
2019-01-30T04:32:46.680Z,100.00
2019-01-30T04:35:15.179Z,100.00
2019-01-30T04:37:43.707Z,100.00
2019-01-30T04:40:17.857Z,100.00
2019-01-30T04:42:46.358Z,100.00
2019-01-30T04:45:25.487Z,100.00
2019-01-30T04:47:53.994Z,100.00
2019-01-30T04:50:22.426Z,100.00
2019-01-30T04:52:51.331Z,100.00
2019-01-30T04:55:20.209Z,100.00
2019-01-30T04:57:48.671Z,100.00
2019-01-30T05:00:20.227Z,100.00
2019-01-30T05:02:48.722Z,100.00
2019-01-30T05:05:17.218Z,100.00
2019-01-30T05:07:45.718Z,100.00
2019-01-30T05:10:14.914Z,100.00
2019-01-30T05:12:43.441Z,100.00
2019-01-30T05:15:16.917Z,100.00
2019-01-30T05:17:45.360Z,100.00
2019-01-30T05:20:16.139Z,100.00
2019-01-30T05:22:44.639Z,100.00
2019-01-30T05:25:13.822Z,100.00
2019-01-30T05:27:42.229Z,100.00
2019-01-30T05:30:16.818Z,100.00
2019-01-30T05:32:45.245Z,100.00
2019-01-30T05:35:15.382Z,100.00
2019-01-30T05:37:43.872Z,100.00
2019-01-30T05:40:17.536Z,100.00
2019-01-30T05:42:46.003Z,100.00
2019-01-30T05:45:16.790Z,100.00
2019-01-30T05:47:45.483Z,100.00
2019-01-30T05:50:15.681Z,100.00
2019-01-30T05:52:44.631Z,100.00
2019-01-30T05:55:15.219Z,100.00
2019-01-30T05:57:43.760Z,100.00
2019-01-30T06:00:18.421Z,100.00
2019-01-30T06:02:46.884Z,100.00
2019-01-30T06:05:15.367Z,100.00
2019-01-30T06:07:43.793Z,100.00
2019-01-30T06:10:12.293Z,100.00
2019-01-30T06:12:40.813Z,100.00
2019-01-30T06:15:12.296Z,100.00
2019-01-30T06:17:40.757Z,100.00
2019-01-30T06:20:12.234Z,100.00
2019-01-30T06:22:40.693Z,100.00
2019-01-30T06:25:10.559Z,100.00
2019-01-30T06:27:38.966Z,100.00
2019-01-30T06:30:10.828Z,100.00
2019-01-30T06:32:39.308Z,100.00
2019-01-30T06:35:07.919Z,100.00
2019-01-30T06:37:36.448Z,100.00
2019-01-30T06:40:07.913Z,100.00
2019-01-30T06:42:36.327Z,100.00
2019-01-30T06:45:07.180Z,100.00
2019-01-30T06:47:35.749Z,100.00
2019-01-30T06:50:09.767Z,100.00
2019-01-30T06:52:38.208Z,100.00
2019-01-30T06:55:07.279Z,100.00
2019-01-30T06:57:35.701Z,100.00
2019-01-30T07:00:18.264Z,100.00
2019-01-30T07:02:46.834Z,100.00
2019-01-30T07:05:15.419Z,100.00
2019-01-30T07:07:43.942Z,100.00
2019-01-30T07:10:15.795Z,100.00
2019-01-30T07:12:44.339Z,100.00
2019-01-30T07:15:13.092Z,100.00
2019-01-30T07:17:41.560Z,100.00
2019-01-30T07:20:13.255Z,100.00
2019-01-30T07:22:41.741Z,100.00
2019-01-30T07:25:19.052Z,100.00
2019-01-30T07:27:47.692Z,100.00
2019-01-30T07:30:21.996Z,100.00
2019-01-30T07:32:50.468Z,100.00
2019-01-30T07:35:18.865Z,100.00
2019-01-30T07:37:47.292Z,100.00
2019-01-30T07:40:16.847Z,100.00
2019-01-30T07:42:45.288Z,100.00
2019-01-30T07:45:22.555Z,100.00
2019-01-30T07:47:51.077Z,100.00
2019-01-30T07:50:19.576Z,100.00
2019-01-30T07:52:48.163Z,100.00
2019-01-30T07:55:17.523Z,100.00
2019-01-30T07:57:46.400Z,100.00
2019-01-30T08:00:18.224Z,100.00
2019-01-30T08:02:52.861Z,100.00
2019-01-30T08:05:18.696Z,100.00
2019-01-30T08:07:47.133Z,100.00
2019-01-30T08:10:16.501Z,100.00
2019-01-30T08:12:44.995Z,100.00
2019-01-30T08:15:19.085Z,100.00
2019-01-30T08:17:47.669Z,100.00
2019-01-30T08:20:18.651Z,99.01
2019-01-30T08:22:47.241Z,98.92
2019-01-30T08:25:18.692Z,99.63
2019-01-30T08:27:47.352Z,99.03
2019-01-30T08:30:23.385Z,98.27
2019-01-30T08:32:54.060Z,97.62
2019-01-30T08:35:25.154Z,96.38
2019-01-30T08:37:53.738Z,95.28
2019-01-30T08:40:22.167Z,95.52
2019-01-30T08:42:52.322Z,95.83
2019-01-30T08:45:26.728Z,95.81
2019-01-30T08:47:55.159Z,96.87
2019-01-30T08:50:23.709Z,96.54
2019-01-30T08:52:52.242Z,96.75
2019-01-30T08:55:20.658Z,97.41
2019-01-30T08:57:49.213Z,97.16
2019-01-30T09:00:20.518Z,97.39
2019-01-30T09:02:49.074Z,97.20
2019-01-30T09:05:17.637Z,97.52
2019-01-30T09:07:46.162Z,97.17
2019-01-30T09:10:19.703Z,96.78
2019-01-30T09:12:48.283Z,96.15
2019-01-30T09:15:18.940Z,94.75
2019-01-30T09:17:48.112Z,95.98
2019-01-30T09:20:18.768Z,95.36
2019-01-30T09:22:47.274Z,95.28
2019-01-30T09:25:20.717Z,94.95
2019-01-30T09:27:49.704Z,93.99
2019-01-30T09:30:23.655Z,93.64
2019-01-30T09:32:52.686Z,93.19
2019-01-30T09:35:22.573Z,93.63
2019-01-30T09:37:51.049Z,94.68
2019-01-30T09:40:21.521Z,94.44
2019-01-30T09:42:49.954Z,94.60
2019-01-30T09:45:20.137Z,94.62
2019-01-30T09:47:48.548Z,94.15
2019-01-30T09:50:22.058Z,95.08
2019-01-30T09:52:51.381Z,94.68
2019-01-30T09:55:19.822Z,94.12
2019-01-30T09:57:48.285Z,93.98
2019-01-30T10:00:22.298Z,93.92
2019-01-30T10:02:50.731Z,92.84
2019-01-30T10:05:19.156Z,93.09
2019-01-30T10:07:47.592Z,91.03
2019-01-30T10:10:30.955Z,88.44
2019-01-30T10:12:59.456Z,88.37
2019-01-30T10:15:33.442Z,86.24
2019-01-30T10:18:02.011Z,85.35
2019-01-30T10:20:32.105Z,84.80
2019-01-30T10:23:00.580Z,84.07
2019-01-30T10:25:29.070Z,83.93
2019-01-30T10:27:57.496Z,85.61
2019-01-30T10:30:34.247Z,83.41
2019-01-30T10:33:02.810Z,83.58
2019-01-30T10:35:31.392Z,82.87
2019-01-30T10:37:59.792Z,83.31
2019-01-30T10:40:28.344Z,83.29
2019-01-30T10:42:57.608Z,84.72
2019-01-30T10:45:26.258Z,84.83
2019-01-30T10:47:54.756Z,84.41
2019-01-30T10:50:28.648Z,86.52
2019-01-30T10:52:57.152Z,85.62
2019-01-30T10:55:36.466Z,87.49
2019-01-30T10:58:10.654Z,86.12
2019-01-30T11:00:47.701Z,87.07
2019-01-30T11:03:16.266Z,88.05
2019-01-30T11:05:45.268Z,88.19
2019-01-30T11:08:13.755Z,88.67
2019-01-30T11:10:42.391Z,88.19
2019-01-30T11:13:10.818Z,88.43
2019-01-30T11:15:39.301Z,90.45
2019-01-30T11:18:09.956Z,89.35
2019-01-30T11:20:38.662Z,89.54
2019-01-30T11:23:07.584Z,90.78
2019-01-30T11:25:39.123Z,91.27
2019-01-30T11:28:07.570Z,90.15
2019-01-30T11:30:36.067Z,91.76
2019-01-30T11:33:04.945Z,90.99
2019-01-30T11:35:34.680Z,91.55
2019-01-30T11:38:03.443Z,90.64
2019-01-30T11:40:31.953Z,91.72
2019-01-30T11:43:00.444Z,92.51
2019-01-30T11:45:43.410Z,91.68
2019-01-30T11:48:11.877Z,91.56
2019-01-30T11:50:41.015Z,92.63
2019-01-30T11:53:10.878Z,92.67
2019-01-30T11:55:39.394Z,93.69
2019-01-30T11:58:08.242Z,92.79
2019-01-30T12:00:44.639Z,93.38
2019-01-30T12:03:13.122Z,93.43
2019-01-30T12:05:42.136Z,93.59
2019-01-30T12:08:10.657Z,94.19
2019-01-30T12:10:43.887Z,94.63
2019-01-30T12:13:12.296Z,93.74
2019-01-30T12:15:40.727Z,93.63
2019-01-30T12:18:09.121Z,94.84
2019-01-30T12:20:37.540Z,93.77
2019-01-30T12:23:06.596Z,93.22
2019-01-30T12:25:35.094Z,93.09
2019-01-30T12:28:03.539Z,92.10
2019-01-30T12:30:31.952Z,92.23
2019-01-30T12:33:00.376Z,91.79
2019-01-30T12:35:28.876Z,90.64
2019-01-30T12:37:57.287Z,90.84
2019-01-30T12:40:26.749Z,90.28
2019-01-30T12:42:55.183Z,90.49
2019-01-30T12:45:32.143Z,90.01
2019-01-30T12:48:00.661Z,90.62
2019-01-30T12:50:29.319Z,90.49
2019-01-30T12:52:57.896Z,90.19
2019-01-30T12:55:29.228Z,89.89
2019-01-30T12:57:57.086Z,89.50
2019-01-30T13:00:30.979Z,89.36
2019-01-30T13:02:59.809Z,89.26
2019-01-30T13:05:28.395Z,90.49
2019-01-30T13:07:56.878Z,89.65
2019-01-30T13:10:25.300Z,90.27
2019-01-30T13:12:53.906Z,91.39
2019-01-30T13:15:27.387Z,90.67
2019-01-30T13:17:55.914Z,91.13
2019-01-30T13:20:24.491Z,91.29
2019-01-30T13:22:55.666Z,91.08
2019-01-30T13:25:26.802Z,91.88
2019-01-30T13:27:55.384Z,91.59
2019-01-30T13:30:32.119Z,91.93
2019-01-30T13:33:00.787Z,91.33
2019-01-30T13:35:29.333Z,91.65
2019-01-30T13:37:57.762Z,91.19
2019-01-30T13:40:32.138Z,91.39
2019-01-30T13:43:00.726Z,91.50
2019-01-30T13:45:30.406Z,91.94
2019-01-30T13:47:59.285Z,92.29
2019-01-30T13:50:29.036Z,91.69
2019-01-30T13:52:57.738Z,91.58
2019-01-30T13:55:26.711Z,92.44
2019-01-30T13:57:55.249Z,92.64
2019-01-30T14:00:32.667Z,92.81
2019-01-30T14:03:01.116Z,93.20
2019-01-30T14:05:30.092Z,93.22
2019-01-30T14:07:58.815Z,92.86
2019-01-30T14:10:28.550Z,93.20
2019-01-30T14:12:56.958Z,92.89
2019-01-30T14:15:28.145Z,93.29
2019-01-30T14:17:56.556Z,93.19
2019-01-30T14:20:25.085Z,92.52
2019-01-30T14:22:53.524Z,92.35
2019-01-30T14:25:22.306Z,92.37
2019-01-30T14:27:50.833Z,92.51
2019-01-30T14:30:22.527Z,92.39
2019-01-30T14:32:50.921Z,91.91
2019-01-30T14:35:19.451Z,92.02
2019-01-30T14:37:47.947Z,92.53
2019-01-30T14:40:19.621Z,92.38
2019-01-30T14:42:48.231Z,92.11
2019-01-30T14:45:19.321Z,91.71
2019-01-30T14:47:49.994Z,92.66
2019-01-30T14:50:20.568Z,92.50
2019-01-30T14:52:48.998Z,92.74
2019-01-30T14:55:18.592Z,93.58
2019-01-30T14:57:47.536Z,93.50
2019-01-30T15:00:30.365Z,94.07
2019-01-30T15:02:58.928Z,93.68
2019-01-30T15:05:28.368Z,94.73
2019-01-30T15:07:56.826Z,93.61
2019-01-30T15:10:27.824Z,93.97
2019-01-30T15:12:56.311Z,92.56
2019-01-30T15:15:27.068Z,93.10
2019-01-30T15:17:55.601Z,93.18
2019-01-30T15:20:26.358Z,92.82
2019-01-30T15:22:55.210Z,92.57
2019-01-30T15:25:24.873Z,92.67
2019-01-30T15:27:53.488Z,92.79
2019-01-30T15:30:27.730Z,92.93
2019-01-30T15:32:56.157Z,92.92
2019-01-30T15:35:33.299Z,93.63
2019-01-30T15:37:54.851Z,93.38
2019-01-30T15:40:30.821Z,93.52
2019-01-30T15:42:59.253Z,93.30
2019-01-30T15:45:27.822Z,93.54
2019-01-30T15:47:56.252Z,93.87
2019-01-30T15:50:33.505Z,93.36
2019-01-30T15:53:02.871Z,93.69
2019-01-30T15:55:31.270Z,93.30
2019-01-30T15:58:02.834Z,93.30
2019-01-30T16:00:36.904Z,93.11
2019-01-30T16:03:06.141Z,92.93
2019-01-30T16:05:44.655Z,92.96
2019-01-30T16:08:05.073Z,93.58
2019-01-30T16:10:33.814Z,93.35
2019-01-30T16:13:02.300Z,93.58
2019-01-30T16:15:39.346Z,93.13
2019-01-30T16:18:08.105Z,93.15
2019-01-30T16:20:36.588Z,92.87
2019-01-30T16:23:06.317Z,93.32
2019-01-30T16:25:34.737Z,93.09
2019-01-30T16:28:03.218Z,93.15
2019-01-30T16:30:32.307Z,93.23
2019-01-30T16:33:00.758Z,93.61
2019-01-30T16:35:31.421Z,94.14
2019-01-30T16:37:59.901Z,93.74
2019-01-30T16:40:28.445Z,94.39
2019-01-30T16:42:56.863Z,93.54
2019-01-30T16:45:30.144Z,94.48
2019-01-30T16:47:58.724Z,94.20
2019-01-30T16:50:27.222Z,94.34
2019-01-30T16:52:55.731Z,94.30
2019-01-30T16:55:24.410Z,94.55
2019-01-30T16:57:54.391Z,94.14
2019-01-30T17:00:28.120Z,94.21
2019-01-30T17:02:57.112Z,94.04
2019-01-30T17:05:25.677Z,94.50
2019-01-30T17:07:54.107Z,94.03
2019-01-30T17:10:22.617Z,94.34
2019-01-30T17:12:51.034Z,94.57
2019-01-30T17:15:27.595Z,94.08
2019-01-30T17:17:56.004Z,93.82
2019-01-30T17:20:26.861Z,94.38
2019-01-30T17:22:55.429Z,94.20
2019-01-30T17:25:23.965Z,94.05
2019-01-30T17:27:52.416Z,94.23
2019-01-30T17:30:32.951Z,94.65
2019-01-30T17:33:01.734Z,94.26
2019-01-30T17:35:30.420Z,93.91
2019-01-30T17:37:58.874Z,94.64
2019-01-30T17:40:29.240Z,94.36
2019-01-30T17:42:57.683Z,94.10
2019-01-30T17:45:26.182Z,94.65
2019-01-30T17:47:54.599Z,94.60
2019-01-30T17:50:26.100Z,94.26
2019-01-30T17:52:54.603Z,94.12
2019-01-30T17:55:26.063Z,93.95
2019-01-30T17:57:53.311Z,94.51
2019-01-30T18:00:46.604Z,94.25
2019-01-30T18:03:14.740Z,94.35
2019-01-30T18:05:43.208Z,95.10
2019-01-30T18:08:11.698Z,94.54
2019-01-30T18:10:40.149Z,95.15
2019-01-30T18:13:08.718Z,95.05
2019-01-30T18:15:37.287Z,94.48
2019-01-30T18:18:06.014Z,94.13
2019-01-30T18:20:34.499Z,94.65
2019-01-30T18:23:02.926Z,95.01
2019-01-30T18:25:31.387Z,95.32
2019-01-30T18:27:59.813Z,95.02
2019-01-30T18:34:13.888Z,95.31
2019-01-30T18:36:42.343Z,95.56
2019-01-30T18:39:10.764Z,95.80
2019-01-30T18:41:39.279Z,95.66
2019-01-30T18:44:07.683Z,94.78
2019-01-30T18:46:36.102Z,94.67
2019-01-30T18:49:05.371Z,95.17
2019-01-30T18:51:33.813Z,94.63
2019-01-30T18:54:02.474Z,94.43
2019-01-30T18:56:30.908Z,94.43
2019-01-30T18:58:59.409Z,95.16
2019-01-30T19:01:27.830Z,94.54
2019-01-30T19:03:56.266Z,94.31
2019-01-30T19:06:24.690Z,94.38
2019-01-30T19:08:53.112Z,94.51
2019-01-30T19:11:21.601Z,94.73
2019-01-30T19:13:50.122Z,94.99
2019-01-30T19:16:18.540Z,94.71
2019-01-30T19:18:48.955Z,94.87
2019-01-30T19:21:17.106Z,95.21
2019-01-30T19:23:45.542Z,95.04
2019-01-30T19:26:13.970Z,94.96
2019-01-30T19:28:42.421Z,94.76
2019-01-30T19:31:10.847Z,95.41
2019-01-30T19:33:39.293Z,95.18
2019-01-30T19:36:07.760Z,95.11
2019-01-30T19:38:36.190Z,95.25
2019-01-30T19:41:04.745Z,94.88
2019-01-30T19:43:33.365Z,95.67
2019-01-30T19:46:01.848Z,95.31
2019-01-30T19:48:30.272Z,95.39
2019-01-30T19:51:01.543Z,95.77
2019-01-30T19:53:29.025Z,95.84
2019-01-30T19:55:57.455Z,95.73
2019-01-30T19:58:26.085Z,95.86
2019-01-30T20:00:54.576Z,96.04
2019-01-30T20:03:23.175Z,96.12
2019-01-30T20:05:51.868Z,96.12
2019-01-30T20:08:20.284Z,96.52
2019-01-30T20:10:48.730Z,96.41
2019-01-30T20:13:17.287Z,96.60
2019-01-30T20:15:45.846Z,96.54
2019-01-30T20:18:14.587Z,96.65
2019-01-30T20:20:43.704Z,96.64
2019-01-30T20:23:49.125Z,96.97
2019-01-30T20:26:18.328Z,97.11
2019-01-30T20:28:47.042Z,97.82
2019-01-30T20:31:15.547Z,97.57
2019-01-30T20:33:44.128Z,97.74
2019-01-30T20:36:13.242Z,98.19
2019-01-30T20:38:41.645Z,98.61
2019-01-30T20:41:19.496Z,97.98
2019-01-30T20:43:47.963Z,98.11
2019-01-30T20:46:17.022Z,98.23
2019-01-30T20:48:51.282Z,98.44
2019-01-30T20:51:15.637Z,98.52
2019-01-30T20:53:44.690Z,98.71
2019-01-30T20:56:13.708Z,98.84
2019-01-30T20:58:42.916Z,98.85
2019-01-30T21:01:11.379Z,98.98
2019-01-30T21:03:39.890Z,99.31
2019-01-30T21:06:08.653Z,99.48
2019-01-30T21:08:37.243Z,99.24
2019-01-30T21:11:05.826Z,99.37
2019-01-30T21:13:34.254Z,98.64
2019-01-30T21:16:02.714Z,99.46
2019-01-30T21:18:31.160Z,99.61
2019-01-30T21:20:59.595Z,98.85
2019-01-30T21:23:28.636Z,98.85
2019-01-30T21:26:03.471Z,99.11
2019-01-30T21:28:31.905Z,99.02
2019-01-30T21:31:00.346Z,99.41
2019-01-30T21:33:28.776Z,99.42
2019-01-30T21:35:57.332Z,99.57
2019-01-30T21:38:25.763Z,99.78
2019-01-30T21:40:54.275Z,99.78
2019-01-30T21:43:22.706Z,99.87
2019-01-30T21:45:51.139Z,100.00
2019-01-30T21:48:19.610Z,100.00
2019-01-30T21:50:48.004Z,99.99
2019-01-30T21:53:16.468Z,100.00
2019-01-30T21:55:44.897Z,100.00
2019-01-30T21:58:13.340Z,100.00
2019-01-30T22:00:41.766Z,100.00
2019-01-30T22:03:11.338Z,99.74
2019-01-30T22:05:39.801Z,99.69
2019-01-30T22:08:08.244Z,99.78
2019-01-30T22:10:36.697Z,100.00
2019-01-30T22:13:05.767Z,99.40
2019-01-30T22:15:34.219Z,99.47
2019-01-30T22:18:02.750Z,99.59
2019-01-30T22:20:31.215Z,99.42
2019-01-30T22:22:59.661Z,99.77
2019-01-30T22:25:28.219Z,99.87
2019-01-30T22:27:56.701Z,99.94
2019-01-30T22:30:27.791Z,100.00
2019-01-30T22:32:56.353Z,100.00
2019-01-30T22:35:24.783Z,100.00
2019-01-30T22:37:53.294Z,100.00
2019-01-30T22:40:21.897Z,100.00
2019-01-30T22:42:50.410Z,100.00
2019-01-30T22:45:21.077Z,100.00
2019-01-30T22:47:49.559Z,100.00
2019-01-30T22:50:20.053Z,100.00
2019-01-30T22:52:48.476Z,100.00
2019-01-30T22:55:19.264Z,100.00
2019-01-30T22:57:50.776Z,100.00
2019-01-30T23:00:32.152Z,100.00
2019-01-30T23:03:00.778Z,100.00
2019-01-30T23:06:04.001Z,100.00
2019-01-30T23:08:33.361Z,100.00
2019-01-30T23:11:20.053Z,100.00
2019-01-30T23:13:51.549Z,100.00
2019-01-30T23:16:28.985Z,100.00
2019-01-30T23:19:03.301Z,100.00
2019-01-30T23:21:43.557Z,100.00
2019-01-30T23:24:31.455Z,100.00
2019-01-30T23:27:05.625Z,100.00
2019-01-30T23:29:51.939Z,100.00
2019-01-30T23:32:41.712Z,100.00
2019-01-30T23:35:21.947Z,100.00
2019-01-30T23:37:53.474Z,100.00
2019-01-30T23:40:27.660Z,100.00
2019-01-30T23:43:23.444Z,100.00
2019-01-30T23:46:06.983Z,100.00
2019-01-30T23:49:11.745Z,100.00
2019-01-30T23:51:52.113Z,100.00
2019-01-30T23:54:35.508Z,100.00
2019-01-30T23:57:40.300Z,100.00
